Terminal Aerodrome Forecast
Issued by NWS Sioux Falls, SD

Home | Current Version | Previous Version | Text Only | Print | Product List | Glossary On
Versions: 1 2 3 4 5 6 7 8 9 10 11 12 13 14 15 16 17 18 19 20 21 22 23 24 25 26 27 28 29 30 31 32 33 34 35 36
000
FTUS43 KFSD 191602 AAA
TAFSUX
TAF AMD
KSUX 191602Z 1916/2012 15007KT 4SM BR OVC008
      TEMPO 1916/1919 1SM BR OVC004
     FM191900 15009KT 2SM BR OVC005
     FM200000 14006KT 3SM -DZ OVC008
     FM200200 13006KT 1 1/2SM -DZ BR OVC003=

USA.gov is the U.S. government's official web portal to all federal, state and local government web resources and services.